Select Airport:
Chesapeake Regional Airport
Last updated: 6 minutes ago
Flight conditions: VFR
Visibility: 10.0 statute miles
Sky Conditions:
   Scattered clouds at 6000 feet
   Scattered clouds at 8500 feet
   Scattered clouds at 9000 feet
Wind From: 250°
Wind speed: 6 knots (6.9 mph)
Wind gust: 16 knots (18.4 mph)
Temperature: 30.3°C (86.54°F)
Dew Point: 16.4°C (61.52°F)
Altimiter setting: 29.75 in-hg
WX phone: 1-757-204-4290
WX freq: 123.675 MHz
Runway 23
   Crosswind component: 3.76 knots (4.33 mph)
   Headwind component: 10.34 knots (11.89 mph)
KCPK 192055Z AUTO 25006G16KT 10SM SCT060 SCT085 SCT090 30/16 A2975 RMK AO2 T03030164
FOR REFERENCE USE ONLY, DATA MAY NOT BE CURRENT.
ALWAYS CHECK FOR UP TO DATE INFORMATION.